Terminal Aerodrome Forecast
Issued by NWS Rapid City, SD

Home | Current Version | Previous Version | Graphics & Text | Print | Product List | Glossary On
Versions: 1 2 3 4 5 6 7 8 9 10 11 12 13 14 15 16 17 18 19 20 21 22 23 24 25
000
FTUS43 KUNR 262320
TAFRAP
TAF
KRAP 262320Z 2700/2724 34011KT 2SM -RASN BR SCT003 OVC025
     FM270300 01009KT 1SM -SN BR OVC002
     FM271600 34014KT 2SM -SHRASN BR OVC007
     FM271900 35018KT 5SM -SHRA BR OVC020
     FM272300 36015KT 5SM -SHRASN BR OVC008=

USA.gov is the U.S. government's official web portal to all federal, state and local government web resources and services.